createdAt,value
2023-05-13T00:01:20.823Z,15.04
2023-05-13T00:03:47.587Z,15.13
2023-05-13T00:06:14.367Z,15.04
2023-05-13T00:08:41.030Z,15.15
2023-05-13T00:11:07.896Z,14.96
2023-05-13T00:13:34.695Z,14.76
2023-05-13T00:16:01.300Z,14.93
2023-05-13T00:18:27.927Z,15.09
2023-05-13T00:20:54.671Z,15.02
2023-05-13T00:23:21.367Z,14.91
2023-05-13T00:25:48.026Z,14.92
2023-05-13T00:28:15.125Z,14.71
2023-05-13T00:30:45.841Z,14.83
2023-05-13T00:33:12.628Z,14.58
2023-05-13T00:35:39.827Z,14.67
2023-05-13T00:38:07.010Z,14.47
2023-05-13T00:40:38.043Z,14.62
2023-05-13T00:43:04.778Z,14.59
2023-05-13T00:45:31.575Z,14.53
2023-05-13T00:47:59.387Z,14.46
2023-05-13T00:50:26.151Z,14.55
2023-05-13T00:52:53.754Z,14.49
2023-05-13T00:55:21.430Z,14.46
2023-05-13T00:57:48.103Z,14.50
2023-05-13T01:00:15.279Z,14.45
2023-05-13T01:03:01.415Z,14.39
2023-05-13T01:05:48.618Z,14.34
2023-05-13T01:08:37.824Z,14.32
2023-05-13T01:11:10.540Z,14.16
2023-05-13T01:13:42.982Z,14.19
2023-05-13T01:16:16.360Z,13.62
2023-05-13T01:19:35.360Z,14.21
2023-05-13T01:22:01.942Z,14.16
2023-05-13T01:24:28.705Z,13.61
2023-05-13T01:26:56.429Z,14.03
2023-05-13T01:29:23.147Z,14.06
2023-05-13T01:31:51.075Z,13.93
2023-05-13T01:34:20.649Z,13.77
2023-05-13T01:36:48.659Z,13.92
2023-05-13T01:39:19.773Z,13.93
2023-05-13T01:41:48.510Z,13.92
2023-05-13T01:44:15.799Z,14.01
2023-05-13T01:46:46.930Z,13.53
2023-05-13T01:49:14.168Z,13.91
2023-05-13T01:51:41.399Z,13.07
2023-05-13T01:54:07.981Z,13.90
2023-05-13T01:56:38.893Z,13.53
2023-05-13T01:59:05.648Z,13.84
2023-05-13T02:01:32.231Z,13.77
2023-05-13T02:04:00.095Z,13.76
2023-05-13T02:06:28.003Z,13.82
2023-05-13T02:08:55.006Z,13.52
2023-05-13T02:11:22.461Z,13.78
2023-05-13T02:13:49.158Z,13.75
2023-05-13T02:16:19.789Z,13.39
2023-05-13T02:18:46.557Z,13.58
2023-05-13T02:21:13.281Z,13.46
2023-05-13T02:23:40.318Z,13.54
2023-05-13T02:26:06.947Z,13.41
2023-05-13T02:28:33.516Z,13.54
2023-05-13T02:31:00.815Z,13.46
2023-05-13T02:33:27.560Z,13.35
2023-05-13T02:35:54.252Z,13.27
2023-05-13T02:38:20.963Z,13.03
2023-05-13T02:40:48.220Z,13.49
2023-05-13T02:43:15.020Z,13.42
2023-05-13T02:45:49.466Z,13.43
2023-05-13T02:48:17.095Z,13.39
2023-05-13T02:50:44.719Z,13.30
2023-05-13T02:53:11.772Z,12.29
2023-05-13T02:55:43.472Z,13.32
2023-05-13T02:58:10.157Z,13.24
2023-05-13T03:00:36.992Z,13.30
2023-05-13T03:03:03.742Z,12.78
2023-05-13T03:05:30.689Z,13.27
2023-05-13T03:07:58.248Z,13.29
2023-05-13T03:10:25.974Z,13.28
2023-05-13T03:12:52.613Z,13.21
2023-05-13T03:15:19.335Z,13.20
2023-05-13T03:17:45.933Z,13.21
2023-05-13T03:20:12.870Z,13.22
2023-05-13T03:22:40.136Z,13.19
2023-05-13T03:25:07.742Z,13.06
2023-05-13T03:27:42.433Z,13.12
2023-05-13T03:30:10.790Z,12.95
2023-05-13T03:32:45.414Z,12.44
2023-05-13T03:35:12.688Z,13.10
2023-05-13T03:37:39.524Z,12.38
2023-05-13T03:40:08.135Z,13.12
2023-05-13T03:42:35.765Z,12.47
2023-05-13T03:45:04.786Z,12.67
2023-05-13T03:47:33.315Z,12.83
2023-05-13T03:50:05.014Z,12.91
2023-05-13T03:52:38.331Z,12.86
2023-05-13T03:55:06.205Z,12.89
2023-05-13T03:57:34.305Z,12.96
2023-05-13T04:00:01.098Z,12.90
2023-05-13T04:02:27.754Z,12.69
2023-05-13T04:04:54.409Z,12.83
2023-05-13T04:07:21.004Z,12.53
2023-05-13T04:09:47.598Z,12.88
2023-05-13T04:12:15.685Z,12.63
2023-05-13T04:14:42.206Z,12.93
2023-05-13T04:17:08.794Z,12.91
2023-05-13T04:19:35.375Z,12.66
2023-05-13T04:22:01.944Z,12.65
2023-05-13T04:24:28.554Z,12.56
2023-05-13T04:26:55.218Z,12.94
2023-05-13T04:29:21.797Z,12.42
2023-05-13T04:31:48.439Z,13.00
2023-05-13T04:34:15.300Z,12.68
2023-05-13T04:36:42.582Z,12.91
2023-05-13T04:39:10.902Z,12.79
2023-05-13T04:41:37.512Z,12.88
2023-05-13T04:44:06.192Z,12.95
2023-05-13T04:46:33.384Z,12.97
2023-05-13T04:49:00.018Z,13.01
2023-05-13T04:51:27.011Z,13.07
2023-05-13T04:53:54.022Z,12.82
2023-05-13T04:56:21.765Z,13.00
2023-05-13T04:58:48.724Z,12.86
2023-05-13T05:01:16.033Z,12.84
2023-05-13T05:03:42.724Z,13.11
2023-05-13T05:06:09.675Z,12.84
2023-05-13T05:08:36.270Z,13.19
2023-05-13T05:11:02.908Z,12.98
2023-05-13T05:13:32.126Z,12.62
2023-05-13T05:15:59.155Z,13.11
2023-05-13T05:18:25.843Z,13.20
2023-05-13T05:20:52.493Z,13.23
2023-05-13T05:23:21.291Z,13.27
2023-05-13T05:25:53.240Z,13.31
2023-05-13T05:28:27.616Z,13.23
2023-05-13T05:30:54.223Z,13.52
2023-05-13T05:33:25.237Z,13.58
2023-05-13T05:35:51.813Z,13.19
2023-05-13T05:38:20.505Z,13.74
2023-05-13T05:40:47.402Z,13.59
2023-05-13T05:43:14.640Z,13.42
2023-05-13T05:45:41.275Z,14.11
2023-05-13T05:48:11.299Z,14.43
2023-05-13T05:50:38.125Z,14.89
2023-05-13T05:53:07.136Z,15.40
2023-05-13T05:55:36.354Z,15.63
2023-05-13T05:58:05.472Z,15.95
2023-05-13T06:00:33.935Z,16.47
2023-05-13T06:03:00.643Z,16.75
2023-05-13T06:05:27.537Z,16.71
2023-05-13T06:07:54.097Z,17.43
2023-05-13T06:10:21.082Z,17.22
2023-05-13T06:12:47.953Z,17.54
2023-05-13T06:15:14.598Z,17.92
2023-05-13T06:17:41.941Z,17.84
2023-05-13T06:20:09.028Z,17.62
2023-05-13T06:22:35.789Z,17.80
2023-05-13T06:25:02.425Z,18.20
2023-05-13T06:27:29.031Z,18.74
2023-05-13T06:29:55.602Z,18.69
2023-05-13T06:32:22.161Z,18.72
2023-05-13T06:34:49.492Z,18.93
2023-05-13T06:37:16.162Z,19.10
2023-05-13T06:39:43.284Z,19.43
2023-05-13T06:42:10.703Z,19.66
2023-05-13T06:44:44.038Z,19.90
2023-05-13T06:47:14.687Z,20.06
2023-05-13T06:49:42.319Z,19.74
2023-05-13T06:52:12.129Z,19.60
2023-05-13T06:54:38.740Z,19.55
2023-05-13T06:57:05.693Z,19.92
2023-05-13T06:59:32.267Z,20.36
2023-05-13T07:01:58.854Z,20.38
2023-05-13T07:04:25.685Z,20.39
2023-05-13T07:06:52.308Z,21.34
2023-05-13T07:09:18.849Z,21.74
2023-05-13T07:11:45.341Z,21.58
2023-05-13T07:14:11.877Z,21.57
2023-05-13T07:16:38.506Z,21.62
2023-05-13T07:19:05.216Z,21.04
2023-05-13T07:21:31.798Z,21.86
2023-05-13T07:23:58.366Z,22.01
2023-05-13T07:26:24.910Z,22.30
2023-05-13T07:28:51.448Z,22.32
2023-05-13T07:31:18.106Z,22.38
2023-05-13T07:33:44.718Z,22.60
2023-05-13T07:36:11.211Z,22.60
2023-05-13T07:38:37.778Z,22.27
2023-05-13T07:41:04.468Z,22.54
2023-05-13T07:43:32.029Z,22.62
2023-05-13T07:45:58.784Z,22.82
2023-05-13T07:48:25.698Z,22.88
2023-05-13T07:50:52.443Z,22.53
2023-05-13T07:53:19.829Z,22.74
2023-05-13T07:55:46.663Z,23.00
2023-05-13T07:58:13.268Z,23.04
2023-05-13T08:00:39.859Z,22.79
2023-05-13T08:03:06.697Z,23.17
2023-05-13T08:05:33.406Z,23.16
2023-05-13T08:08:00.044Z,23.50
2023-05-13T08:10:26.704Z,23.63
2023-05-13T08:12:57.557Z,23.83
2023-05-13T08:15:24.979Z,24.32
2023-05-13T08:17:53.774Z,24.69
2023-05-13T08:20:23.047Z,24.24
2023-05-13T08:22:49.721Z,24.32
2023-05-13T08:25:16.443Z,24.76
2023-05-13T08:27:44.203Z,24.83
2023-05-13T08:30:11.259Z,24.96
2023-05-13T08:32:37.852Z,25.01
2023-05-13T08:35:04.757Z,24.87
2023-05-13T08:37:31.584Z,24.96
2023-05-13T08:40:00.524Z,25.42
2023-05-13T08:42:37.786Z,25.44
2023-05-13T08:45:05.687Z,25.70
2023-05-13T08:47:51.077Z,25.77
2023-05-13T08:50:19.234Z,25.40
2023-05-13T08:52:46.045Z,25.70
2023-05-13T08:55:13.084Z,25.45
2023-05-13T08:57:39.754Z,25.74
2023-05-13T09:00:08.138Z,26.14
2023-05-13T09:02:34.870Z,25.97
2023-05-13T09:05:07.480Z,26.13
2023-05-13T09:07:36.842Z,26.29
2023-05-13T09:10:07.740Z,26.55
2023-05-13T09:12:51.711Z,26.57
2023-05-13T09:15:21.529Z,26.40
2023-05-13T09:17:51.425Z,26.70
2023-05-13T09:20:20.073Z,27.00
2023-05-13T09:22:55.412Z,26.91
2023-05-13T09:25:25.208Z,26.97
2023-05-13T09:27:57.485Z,27.01
2023-05-13T09:30:28.259Z,27.33
2023-05-13T09:33:19.611Z,27.69
2023-05-13T09:35:52.797Z,27.85
2023-05-13T09:38:25.207Z,27.98
2023-05-13T09:40:55.762Z,27.66
2023-05-13T09:43:24.216Z,27.49
2023-05-13T09:45:55.421Z,27.79
2023-05-13T09:48:25.186Z,28.06
2023-05-13T09:50:52.498Z,28.09
2023-05-13T09:53:21.165Z,27.73
2023-05-13T09:55:49.175Z,27.64
2023-05-13T09:58:20.106Z,27.88
2023-05-13T10:00:47.753Z,28.06
2023-05-13T10:03:15.922Z,28.16
2023-05-13T10:05:42.802Z,28.16
2023-05-13T10:08:11.922Z,28.31
2023-05-13T10:10:39.785Z,28.50
2023-05-13T10:13:09.299Z,28.34
2023-05-13T10:15:36.120Z,28.09
2023-05-13T10:18:05.979Z,28.26
2023-05-13T10:20:34.008Z,28.74
2023-05-13T10:23:00.643Z,29.12
2023-05-13T10:25:27.892Z,29.29
2023-05-13T10:27:57.740Z,29.08
2023-05-13T10:30:26.501Z,29.63
2023-05-13T10:32:54.546Z,29.90
2023-05-13T10:35:25.332Z,29.22
2023-05-13T10:38:17.543Z,29.57
2023-05-13T10:41:08.047Z,29.65
2023-05-13T10:43:35.221Z,29.68
2023-05-13T10:46:06.514Z,29.97
2023-05-13T10:48:39.522Z,29.68
2023-05-13T10:51:09.128Z,30.01
2023-05-13T10:53:49.186Z,30.39
2023-05-13T10:56:19.260Z,30.33
2023-05-13T10:58:58.547Z,30.74
2023-05-13T11:01:29.501Z,30.91
2023-05-13T11:03:59.131Z,31.10
2023-05-13T11:06:40.818Z,31.53
2023-05-13T11:09:14.645Z,31.03
2023-05-13T11:11:41.906Z,31.08
2023-05-13T11:14:14.058Z,31.37
2023-05-13T11:16:48.880Z,31.49
2023-05-13T11:19:25.822Z,31.49
2023-05-13T11:21:54.229Z,30.84
2023-05-13T11:24:22.017Z,31.47
2023-05-13T11:26:49.830Z,32.15
2023-05-13T11:29:37.327Z,32.40
2023-05-13T11:32:05.782Z,32.41
2023-05-13T11:34:33.979Z,32.11
2023-05-13T11:37:03.564Z,32.25
2023-05-13T11:39:30.826Z,32.21
2023-05-13T11:41:57.586Z,32.22
2023-05-13T11:44:25.644Z,32.59
2023-05-13T11:46:56.227Z,32.76
2023-05-13T11:49:42.072Z,32.82
2023-05-13T11:52:14.482Z,32.24
2023-05-13T11:54:46.303Z,32.98
2023-05-13T11:57:20.203Z,33.04
2023-05-13T11:59:53.939Z,32.97
2023-05-13T12:02:22.206Z,32.79
2023-05-13T12:04:49.108Z,32.46
2023-05-13T12:07:20.072Z,32.71
2023-05-13T12:09:46.605Z,32.61
2023-05-13T12:12:14.574Z,32.96
2023-05-13T12:14:42.250Z,32.79
2023-05-13T12:17:09.030Z,32.85
2023-05-13T12:19:37.291Z,32.43
2023-05-13T12:22:05.622Z,31.91
2023-05-13T12:24:35.411Z,32.43
2023-05-13T12:27:08.631Z,32.55
2023-05-13T12:29:42.911Z,33.02
2023-05-13T12:32:11.270Z,33.29
2023-05-13T12:34:38.970Z,33.22
2023-05-13T12:37:12.827Z,33.17
2023-05-13T12:39:41.478Z,32.60
2023-05-13T12:42:18.542Z,32.85
2023-05-13T12:44:45.850Z,32.74
2023-05-13T12:47:15.210Z,32.57
2023-05-13T12:49:52.394Z,33.26
2023-05-13T12:52:19.487Z,33.37
2023-05-13T12:54:46.256Z,33.39
2023-05-13T12:57:12.871Z,33.39
2023-05-13T12:59:39.520Z,33.51
2023-05-13T13:02:06.816Z,33.85
2023-05-13T13:04:33.364Z,34.04
2023-05-13T13:06:59.900Z,34.31
2023-05-13T13:09:26.418Z,33.38
2023-05-13T13:11:53.017Z,33.42
2023-05-13T13:14:19.611Z,33.18
2023-05-13T13:16:46.784Z,33.22
2023-05-13T13:19:13.440Z,33.19
2023-05-13T13:21:40.059Z,33.17
2023-05-13T13:24:06.820Z,33.79
2023-05-13T13:26:33.424Z,33.73
2023-05-13T13:29:00.000Z,33.46
2023-05-13T13:31:26.622Z,33.38
2023-05-13T13:33:53.948Z,33.80
2023-05-13T13:36:20.647Z,33.87
2023-05-13T13:38:47.240Z,33.72
2023-05-13T13:41:13.911Z,33.80
2023-05-13T13:43:40.441Z,33.74
2023-05-13T13:46:07.197Z,33.88
2023-05-13T13:48:33.839Z,34.33
2023-05-13T13:51:00.553Z,33.61
2023-05-13T13:53:27.103Z,33.89
2023-05-13T13:55:53.686Z,34.41
2023-05-13T13:58:20.379Z,34.16
2023-05-13T14:00:46.916Z,34.17
2023-05-13T14:03:13.654Z,34.46
2023-05-13T14:05:40.279Z,34.34
2023-05-13T14:08:07.006Z,34.59
2023-05-13T14:10:33.556Z,35.10
2023-05-13T14:13:00.079Z,34.76
2023-05-13T14:15:28.850Z,34.92
2023-05-13T14:17:55.647Z,34.81
2023-05-13T14:20:22.863Z,34.82
2023-05-13T14:22:49.623Z,35.25
2023-05-13T14:25:16.552Z,34.94
2023-05-13T14:27:43.122Z,35.20
2023-05-13T14:30:09.867Z,34.87
2023-05-13T14:32:36.452Z,34.59
2023-05-13T14:35:03.030Z,35.44
2023-05-13T14:37:29.604Z,35.51
2023-05-13T14:39:56.109Z,34.99
2023-05-13T14:42:22.739Z,34.69
2023-05-13T14:44:49.355Z,34.53
2023-05-13T14:47:15.908Z,35.06
2023-05-13T14:49:42.556Z,35.07
2023-05-13T14:52:09.103Z,35.17
2023-05-13T14:54:36.871Z,35.20
2023-05-13T14:57:04.438Z,35.37
2023-05-13T14:59:32.220Z,35.15
2023-05-13T15:01:58.839Z,34.91
2023-05-13T15:04:25.432Z,35.16
2023-05-13T15:06:52.155Z,35.31
2023-05-13T15:09:19.654Z,35.32
2023-05-13T15:11:46.248Z,35.40
2023-05-13T15:14:12.888Z,35.57
2023-05-13T15:16:39.609Z,35.41
2023-05-13T15:19:07.294Z,34.95
2023-05-13T15:21:34.007Z,34.46
2023-05-13T15:24:00.575Z,34.40
2023-05-13T15:26:27.199Z,34.35
2023-05-13T15:28:53.964Z,34.49
2023-05-13T15:31:20.901Z,34.50
2023-05-13T15:33:47.465Z,34.55
2023-05-13T15:36:14.006Z,34.18
2023-05-13T15:38:40.719Z,34.04
2023-05-13T15:41:07.471Z,34.27
2023-05-13T15:43:34.415Z,34.49
2023-05-13T15:46:01.436Z,34.40
2023-05-13T15:48:29.059Z,33.93
2023-05-13T15:50:55.590Z,33.60
2023-05-13T15:53:22.183Z,34.00
2023-05-13T15:55:48.849Z,34.44
2023-05-13T15:58:15.422Z,34.25
2023-05-13T16:00:41.912Z,34.23
2023-05-13T16:03:08.509Z,34.46
2023-05-13T16:05:36.301Z,34.33
2023-05-13T16:08:02.950Z,33.99
2023-05-13T16:10:29.604Z,33.66
2023-05-13T16:12:56.107Z,33.54
2023-05-13T16:15:22.703Z,33.29
2023-05-13T16:17:49.284Z,33.56
2023-05-13T16:20:15.842Z,33.84
2023-05-13T16:22:43.351Z,33.52
2023-05-13T16:25:11.481Z,33.12
2023-05-13T16:27:39.239Z,32.94
2023-05-13T16:30:07.455Z,31.46
2023-05-13T16:32:34.918Z,30.60
2023-05-13T16:35:02.754Z,29.98
2023-05-13T16:37:29.809Z,28.24
2023-05-13T16:39:56.386Z,27.81
2023-05-13T16:42:23.190Z,27.56
2023-05-13T16:44:49.820Z,27.21
2023-05-13T16:47:16.503Z,26.90
2023-05-13T16:49:43.189Z,27.11
2023-05-13T16:52:09.801Z,27.22
2023-05-13T16:54:36.383Z,27.37
2023-05-13T16:57:02.952Z,27.18
2023-05-13T16:59:29.582Z,26.84
2023-05-13T17:01:56.284Z,26.31
2023-05-13T17:04:22.947Z,25.86
2023-05-13T17:06:49.557Z,25.72
2023-05-13T17:09:16.210Z,25.51
2023-05-13T17:11:43.488Z,24.82
2023-05-13T17:14:10.333Z,25.28
2023-05-13T17:16:37.110Z,25.34
2023-05-13T17:19:03.786Z,25.14
2023-05-13T17:21:30.456Z,24.56
2023-05-13T17:23:56.967Z,25.12
2023-05-13T17:26:23.495Z,25.43
2023-05-13T17:28:50.074Z,25.46
2023-05-13T17:31:16.822Z,25.02
2023-05-13T17:33:43.680Z,24.07
2023-05-13T17:36:10.890Z,23.77
2023-05-13T17:38:37.982Z,23.71
2023-05-13T17:41:05.078Z,23.94
2023-05-13T17:43:31.806Z,23.80
2023-05-13T17:45:58.443Z,23.68
2023-05-13T17:48:26.586Z,23.69
2023-05-13T17:50:53.303Z,23.66
2023-05-13T17:53:20.682Z,23.43
2023-05-13T17:55:50.575Z,23.83
2023-05-13T17:58:17.129Z,23.72
2023-05-13T18:00:43.756Z,23.61
2023-05-13T18:03:10.492Z,23.51
2023-05-13T18:05:37.453Z,23.57
2023-05-13T18:08:04.162Z,23.41
2023-05-13T18:10:30.996Z,23.66
2023-05-13T18:12:57.572Z,23.99
2023-05-13T18:15:24.111Z,24.29
2023-05-13T18:17:50.803Z,24.26
2023-05-13T18:20:18.160Z,24.32
2023-05-13T18:22:44.739Z,24.08
2023-05-13T18:25:11.582Z,23.32
2023-05-13T18:27:38.245Z,23.49
2023-05-13T18:30:06.148Z,23.34
2023-05-13T18:32:32.823Z,23.20
2023-05-13T18:34:59.391Z,22.69
2023-05-13T18:37:25.965Z,22.91
2023-05-13T18:39:52.629Z,22.59
2023-05-13T18:42:19.191Z,22.29
2023-05-13T18:44:45.857Z,21.55
2023-05-13T18:47:12.439Z,21.70
2023-05-13T18:49:39.157Z,21.54
2023-05-13T18:52:06.237Z,20.86
2023-05-13T18:54:32.855Z,21.10
2023-05-13T18:56:59.478Z,20.88
2023-05-13T18:59:26.074Z,20.74
2023-05-13T19:01:52.794Z,20.53
2023-05-13T19:04:19.739Z,19.93
2023-05-13T19:06:46.426Z,20.28
2023-05-13T19:09:13.008Z,20.10
2023-05-13T19:11:39.597Z,19.79
2023-05-13T19:14:06.641Z,19.36
2023-05-13T19:16:33.317Z,19.15
2023-05-13T19:18:59.909Z,19.39
2023-05-13T19:21:26.505Z,19.45
2023-05-13T19:23:53.082Z,19.22
2023-05-13T19:26:19.747Z,18.98
2023-05-13T19:28:46.764Z,18.94
2023-05-13T19:31:13.352Z,18.75
2023-05-13T19:33:40.310Z,18.59
2023-05-13T19:36:07.227Z,18.45
2023-05-13T19:38:34.908Z,18.26
2023-05-13T19:41:01.743Z,18.19
2023-05-13T19:43:28.285Z,18.02
2023-05-13T19:45:56.429Z,18.05
2023-05-13T19:48:23.107Z,17.60
2023-05-13T19:50:53.291Z,17.78
2023-05-13T19:53:21.633Z,17.19
2023-05-13T19:55:48.271Z,17.49
2023-05-13T19:58:15.632Z,17.58
2023-05-13T20:00:43.965Z,17.47
2023-05-13T20:03:11.066Z,17.35
2023-05-13T20:05:40.067Z,17.82
2023-05-13T20:08:06.920Z,17.86
2023-05-13T20:10:35.237Z,17.94
2023-05-13T20:13:03.954Z,18.21
2023-05-13T20:15:31.726Z,18.34
2023-05-13T20:17:58.478Z,18.47
2023-05-13T20:20:25.303Z,18.47
2023-05-13T20:22:52.094Z,18.48
2023-05-13T20:25:18.676Z,18.69
2023-05-13T20:27:45.362Z,18.81
2023-05-13T20:30:12.639Z,18.88
2023-05-13T20:32:39.320Z,18.93
2023-05-13T20:35:07.504Z,18.91
2023-05-13T20:37:34.341Z,19.00
2023-05-13T20:40:00.960Z,19.03
2023-05-13T20:42:27.537Z,19.00
2023-05-13T20:44:54.123Z,19.04
2023-05-13T20:47:20.953Z,18.81
2023-05-13T20:49:47.515Z,19.03
2023-05-13T20:52:14.173Z,19.02
2023-05-13T20:54:40.853Z,18.93
2023-05-13T20:57:07.497Z,18.84
2023-05-13T20:59:34.508Z,18.74
2023-05-13T21:02:01.100Z,19.04
2023-05-13T21:04:27.908Z,19.03
2023-05-13T21:06:54.456Z,18.54
2023-05-13T21:09:20.966Z,18.43
2023-05-13T21:11:47.534Z,18.82
2023-05-13T21:14:14.258Z,18.70
2023-05-13T21:16:40.814Z,18.67
2023-05-13T21:19:07.600Z,18.34
2023-05-13T21:21:34.203Z,18.45
2023-05-13T21:24:00.731Z,18.72
2023-05-13T21:26:27.339Z,18.69
2023-05-13T21:28:53.891Z,18.46
2023-05-13T21:31:20.546Z,18.51
2023-05-13T21:33:48.771Z,18.44
2023-05-13T21:36:15.355Z,18.37
2023-05-13T21:38:41.878Z,18.27
2023-05-13T21:41:08.481Z,17.91
2023-05-13T21:43:35.115Z,18.02
2023-05-13T21:46:03.168Z,17.40
2023-05-13T21:48:29.748Z,17.57
2023-05-13T21:50:56.415Z,17.75
2023-05-13T21:53:23.190Z,17.53
2023-05-13T21:55:50.250Z,17.63
2023-05-13T21:58:16.930Z,17.10
2023-05-13T22:00:43.568Z,17.12
2023-05-13T22:03:10.230Z,17.43
2023-05-13T22:05:42.198Z,17.37
2023-05-13T22:08:08.826Z,17.08
2023-05-13T22:10:35.378Z,17.32
2023-05-13T22:13:02.055Z,17.23
2023-05-13T22:15:28.701Z,16.92
2023-05-13T22:17:55.425Z,17.02
2023-05-13T22:20:22.463Z,17.01
2023-05-13T22:22:49.469Z,17.00
2023-05-13T22:25:16.221Z,16.84
2023-05-13T22:27:42.703Z,16.91
2023-05-13T22:30:09.489Z,16.95
2023-05-13T22:32:38.233Z,16.41
2023-05-13T22:35:06.413Z,16.54
2023-05-13T22:37:32.924Z,16.89
2023-05-13T22:39:59.465Z,16.79
2023-05-13T22:42:27.294Z,16.74
2023-05-13T22:44:53.794Z,16.58
2023-05-13T22:47:20.414Z,16.61
2023-05-13T22:49:46.919Z,16.57
2023-05-13T22:52:13.456Z,16.66
2023-05-13T22:54:39.927Z,16.60
2023-05-13T22:57:06.521Z,16.70
2023-05-13T22:59:33.041Z,16.77
2023-05-13T23:01:59.802Z,16.75
2023-05-13T23:04:26.581Z,16.74
2023-05-13T23:06:53.156Z,16.72
2023-05-13T23:09:19.786Z,16.60
2023-05-13T23:11:46.365Z,16.66
2023-05-13T23:14:13.044Z,16.65
2023-05-13T23:16:39.638Z,16.51
2023-05-13T23:19:06.256Z,16.53
2023-05-13T23:21:32.872Z,16.51
2023-05-13T23:23:59.519Z,16.45
2023-05-13T23:26:26.063Z,16.26
2023-05-13T23:28:52.694Z,16.33
2023-05-13T23:31:19.277Z,16.14
2023-05-13T23:33:45.910Z,16.07
2023-05-13T23:36:12.551Z,16.22
2023-05-13T23:38:39.642Z,15.66
2023-05-13T23:41:06.228Z,15.76
2023-05-13T23:43:32.754Z,15.99
2023-05-13T23:45:59.419Z,15.92
2023-05-13T23:48:29.068Z,15.70
2023-05-13T23:50:55.641Z,15.63
2023-05-13T23:53:22.184Z,15.67
2023-05-13T23:55:48.927Z,15.45
2023-05-13T23:58:15.730Z,15.51
